createdAt,value
2018-12-01T00:00:07.713Z,41.53
2018-12-01T00:02:36.549Z,34.67
2018-12-01T00:05:05.515Z,34.77
2018-12-01T00:07:33.783Z,34.27
2018-12-01T00:10:02.093Z,33.60
2018-12-01T00:12:30.397Z,33.13
2018-12-01T00:14:58.693Z,37.97
2018-12-01T00:17:27.080Z,32.80
2018-12-01T00:19:55.936Z,36.27
2018-12-01T00:22:24.643Z,31.80
2018-12-01T00:24:52.920Z,31.37
2018-12-01T00:27:21.584Z,34.40
2018-12-01T00:29:49.844Z,30.40
2018-12-01T00:32:18.301Z,30.03
2018-12-01T00:34:47.060Z,30.93
2018-12-01T00:37:15.309Z,32.90
2018-12-01T00:39:43.568Z,29.70
2018-12-01T00:42:11.846Z,38.43
2018-12-01T00:44:40.338Z,31.03
2018-12-01T00:47:08.692Z,39.30
2018-12-01T00:49:37.123Z,34.97
2018-12-01T00:52:05.487Z,45.33
2018-12-01T00:54:33.712Z,29.77
2018-12-01T00:57:02.235Z,31.07
2018-12-01T00:59:30.501Z,34.03
2018-12-01T01:01:59.039Z,38.20
2018-12-01T01:04:27.703Z,31.13
2018-12-01T01:06:55.984Z,44.80
2018-12-01T01:09:24.244Z,39.30
2018-12-01T01:11:52.523Z,31.87
2018-12-01T01:14:20.808Z,34.53
2018-12-01T01:16:49.240Z,33.83
2018-12-01T01:19:18.079Z,30.50
2018-12-01T01:21:46.303Z,42.53
2018-12-01T01:24:14.548Z,32.77
2018-12-01T01:26:43.128Z,29.67
2018-12-01T01:29:11.412Z,32.07
2018-12-01T01:31:40.024Z,31.70
2018-12-01T01:34:08.836Z,39.47
2018-12-01T01:36:37.324Z,30.90
2018-12-01T01:39:06.988Z,34.27
2018-12-01T01:41:35.263Z,30.37
2018-12-01T01:44:03.961Z,36.13
2018-12-01T01:46:32.305Z,47.03
2018-12-01T01:49:01.091Z,33.40
2018-12-01T01:51:29.344Z,36.10
2018-12-01T01:53:57.616Z,33.40
2018-12-01T01:56:25.893Z,34.60
2018-12-01T01:58:54.220Z,39.40
2018-12-01T02:01:22.744Z,33.57
2018-12-01T02:03:51.733Z,33.60
2018-12-01T02:06:20.000Z,30.23
2018-12-01T02:08:48.763Z,32.43
2018-12-01T02:11:17.020Z,32.87
2018-12-01T02:13:45.728Z,32.30
2018-12-01T02:16:13.981Z,30.00
2018-12-01T02:18:42.637Z,30.73
2018-12-01T02:21:10.906Z,41.33
2018-12-01T02:23:39.147Z,35.37
2018-12-01T02:26:07.465Z,30.37
2018-12-01T02:28:35.728Z,28.47
2018-12-01T02:31:04.208Z,34.00
2018-12-01T02:33:33.181Z,28.63
2018-12-01T02:36:01.781Z,39.53
2018-12-01T02:38:30.058Z,33.60
2018-12-01T02:40:58.384Z,36.43
2018-12-01T02:43:26.676Z,32.73
2018-12-01T02:46:06.272Z,30.60
2018-12-01T02:48:34.553Z,32.03
2018-12-01T02:51:03.603Z,33.20
2018-12-01T02:53:31.842Z,30.50
2018-12-01T02:56:00.062Z,41.50
2018-12-01T02:58:28.608Z,32.43
2018-12-01T03:00:56.870Z,32.27
2018-12-01T03:03:25.979Z,36.83
2018-12-01T03:05:54.253Z,42.50
2018-12-01T03:08:22.535Z,33.37
2018-12-01T03:10:51.373Z,31.40
2018-12-01T03:13:19.936Z,34.00
2018-12-01T03:15:48.208Z,35.77
2018-12-01T03:18:16.844Z,57.30
2018-12-01T03:20:45.105Z,62.33
2018-12-01T03:23:13.856Z,35.97
2018-12-01T03:25:42.148Z,34.67
2018-12-01T03:28:10.443Z,58.90
2018-12-01T03:30:38.794Z,35.20
2018-12-01T03:33:07.450Z,40.80
2018-12-01T03:35:36.192Z,35.17
2018-12-01T03:38:04.449Z,38.07
2018-12-01T03:40:38.023Z,39.07
2018-12-01T03:43:07.025Z,37.20
2018-12-01T03:45:35.684Z,39.93
2018-12-01T03:48:03.967Z,35.50
2018-12-01T03:50:32.763Z,37.67
2018-12-01T03:53:01.047Z,40.10
2018-12-01T03:55:30.267Z,38.17
2018-12-01T03:57:58.721Z,34.73
2018-12-01T04:00:28.163Z,37.50
2018-12-01T04:02:58.543Z,51.00
2018-12-01T04:05:27.641Z,39.27
2018-12-01T04:07:55.970Z,36.67
2018-12-01T04:10:24.861Z,37.43
2018-12-01T04:12:54.133Z,55.00
2018-12-01T04:15:22.408Z,45.13
2018-12-01T04:17:50.663Z,41.47
2018-12-01T04:20:19.311Z,42.27
2018-12-01T04:22:47.575Z,44.50
2018-12-01T04:25:15.868Z,37.30
2018-12-01T04:27:44.156Z,39.23
2018-12-01T04:30:17.338Z,38.33
2018-12-01T04:32:46.132Z,38.57
2018-12-01T04:35:17.760Z,49.67
2018-12-01T04:37:47.888Z,49.87
2018-12-01T04:40:16.195Z,44.83
2018-12-01T04:42:45.728Z,64.13
2018-12-01T04:45:14.057Z,38.23
2018-12-01T04:47:42.306Z,52.43
2018-12-01T04:50:12.208Z,46.47
2018-12-01T04:52:40.589Z,45.67
2018-12-01T04:55:10.639Z,46.20
2018-12-01T04:57:38.933Z,50.03
2018-12-01T05:00:13.074Z,52.13
2018-12-01T05:02:41.340Z,49.97
2018-12-01T05:05:11.308Z,54.37
2018-12-01T05:07:39.923Z,60.53
2018-12-01T05:10:09.500Z,41.97
2018-12-01T05:12:38.631Z,61.80
2018-12-01T05:15:09.723Z,42.80
2018-12-01T05:17:37.972Z,55.17
2018-12-01T05:20:09.101Z,42.43
2018-12-01T05:22:37.464Z,70.57
2018-12-01T05:25:07.131Z,44.23
2018-12-01T05:27:35.401Z,50.47
2018-12-01T05:30:03.769Z,44.73
2018-12-01T05:32:32.732Z,42.10
2018-12-01T05:35:01.405Z,45.83
2018-12-01T05:37:29.644Z,40.80
2018-12-01T05:39:57.872Z,47.90
2018-12-01T05:42:26.578Z,62.90
2018-12-01T05:44:55.471Z,62.33
2018-12-01T05:47:23.771Z,58.90
2018-12-01T05:49:52.732Z,47.13
2018-12-01T05:52:21.040Z,43.47
2018-12-01T05:54:49.312Z,42.47
2018-12-01T05:57:17.655Z,52.37
2018-12-01T05:59:45.903Z,40.17
2018-12-01T06:02:14.395Z,47.13
2018-12-01T06:04:43.036Z,46.20
2018-12-01T06:07:11.346Z,40.57
2018-12-01T06:09:39.652Z,41.10
2018-12-01T06:12:08.496Z,53.40
2018-12-01T06:14:36.796Z,40.63
2018-12-01T06:17:05.081Z,46.77
2018-12-01T06:19:33.695Z,42.67
2018-12-01T06:22:01.937Z,71.13
2018-12-01T06:24:30.190Z,47.47
2018-12-01T06:26:58.463Z,44.83
2018-12-01T06:29:27.536Z,50.73
2018-12-01T06:31:56.246Z,51.53
2018-12-01T06:34:24.805Z,48.57
2018-12-01T06:36:53.803Z,77.30
2018-12-01T06:39:22.068Z,46.33
2018-12-01T06:41:50.371Z,45.23
2018-12-01T06:44:18.704Z,40.53
2018-12-01T06:46:46.940Z,41.90
2018-12-01T06:49:15.654Z,61.20
2018-12-01T06:51:43.940Z,55.97
2018-12-01T06:54:12.200Z,48.10
2018-12-01T06:56:40.457Z,56.70
2018-12-01T06:59:08.715Z,46.43
2018-12-01T07:01:37.055Z,46.97
2018-12-01T07:04:06.164Z,55.40
2018-12-01T07:06:34.412Z,60.23
2018-12-01T07:09:02.632Z,48.73
2018-12-01T07:11:31.092Z,55.20
2018-12-01T07:13:59.604Z,48.23
2018-12-01T07:16:27.884Z,41.70
2018-12-01T07:19:17.771Z,46.33
2018-12-01T07:21:47.167Z,47.23
2018-12-01T07:24:15.439Z,42.17
2018-12-01T07:26:44.027Z,58.17
2018-12-01T07:29:12.291Z,59.90
2018-12-01T07:31:41.267Z,55.83
2018-12-01T07:34:10.085Z,40.40
2018-12-01T07:36:38.339Z,56.77
2018-12-01T07:39:08.268Z,38.23
2018-12-01T07:41:36.584Z,37.33
2018-12-01T07:44:06.007Z,41.47
2018-12-01T07:46:34.325Z,38.37
2018-12-01T07:49:03.143Z,37.97
2018-12-01T07:51:31.419Z,44.87
2018-12-01T07:53:59.736Z,70.50
2018-12-01T07:56:28.028Z,42.80
2018-12-01T07:58:56.284Z,46.70
2018-12-01T08:01:24.618Z,51.03
2018-12-01T08:03:53.425Z,57.13
2018-12-01T08:06:22.134Z,39.90
2018-12-01T08:08:50.396Z,45.37
2018-12-01T08:11:18.647Z,38.43
2018-12-01T08:13:47.508Z,35.50
2018-12-01T08:16:16.284Z,47.43
2018-12-01T08:18:44.827Z,42.17
2018-12-01T08:21:13.055Z,43.30
2018-12-01T08:23:41.321Z,48.97
2018-12-01T08:26:09.607Z,38.53
2018-12-01T08:28:37.887Z,64.17
2018-12-01T08:31:06.221Z,42.07
2018-12-01T08:33:35.508Z,59.60
2018-12-01T08:36:04.043Z,41.30
2018-12-01T08:38:32.311Z,44.70
2018-12-01T08:41:00.581Z,39.17
2018-12-01T08:43:29.175Z,35.40
2018-12-01T08:45:57.432Z,35.13
2018-12-01T08:48:25.745Z,45.10
2018-12-01T08:50:57.495Z,47.47
2018-12-01T08:53:25.785Z,41.23
2018-12-01T08:55:54.032Z,37.33
2018-12-01T08:58:23.333Z,35.33
2018-12-01T09:00:51.611Z,39.13
2018-12-01T09:03:21.911Z,40.43
2018-12-01T09:05:50.885Z,34.73
2018-12-01T09:08:19.691Z,47.63
2018-12-01T09:10:48.386Z,47.27
2018-12-01T09:13:17.021Z,42.17
2018-12-01T09:15:45.749Z,47.10
2018-12-01T09:18:14.340Z,43.13
2018-12-01T09:20:42.609Z,37.87
2018-12-01T09:23:10.889Z,35.20
2018-12-01T09:25:39.187Z,32.40
2018-12-01T09:28:08.357Z,50.67
2018-12-01T09:30:41.176Z,33.93
2018-12-01T09:33:10.056Z,36.63
2018-12-01T09:35:38.931Z,37.60
2018-12-01T09:38:07.235Z,40.87
2018-12-01T09:40:35.688Z,37.10
2018-12-01T09:43:04.031Z,36.40
2018-12-01T09:45:32.640Z,39.03
2018-12-01T09:48:00.935Z,42.93
2018-12-01T09:50:29.665Z,42.97
2018-12-01T09:52:59.020Z,39.83
2018-12-01T09:55:29.285Z,38.43
2018-12-01T09:57:58.156Z,38.03
2018-12-01T10:00:31.478Z,51.37
2018-12-01T10:03:01.667Z,47.70
2018-12-01T10:05:30.700Z,49.70
2018-12-01T10:07:59.422Z,39.77
2018-12-01T10:10:28.575Z,41.30
2018-12-01T10:12:57.770Z,73.07
2018-12-01T10:15:27.143Z,38.73
2018-12-01T10:17:55.863Z,66.80
2018-12-01T10:20:29.476Z,42.03
2018-12-01T10:22:58.185Z,52.50
2018-12-01T10:25:26.548Z,47.70
2018-12-01T10:27:54.812Z,45.63
2018-12-01T10:30:23.112Z,46.37
2018-12-01T10:32:52.363Z,43.20
2018-12-01T10:35:22.176Z,59.03
2018-12-01T10:37:52.948Z,72.60
2018-12-01T10:40:21.244Z,52.37
2018-12-01T10:42:49.830Z,59.60
2018-12-01T10:45:19.218Z,54.77
2018-12-01T10:47:47.731Z,60.03
2018-12-01T10:50:20.683Z,42.43
2018-12-01T10:52:50.409Z,92.03
2018-12-01T10:55:30.189Z,39.10
2018-12-01T10:58:06.312Z,51.83
2018-12-01T11:00:40.037Z,55.63
2018-12-01T11:03:15.165Z,69.97
2018-12-01T11:05:43.567Z,68.57
2018-12-01T11:08:12.331Z,42.47
2018-12-01T11:10:40.895Z,70.10
2018-12-01T11:13:10.388Z,79.87
2018-12-01T11:15:38.493Z,47.70
2018-12-01T11:18:07.248Z,59.87
2018-12-01T11:20:35.552Z,53.67
2018-12-01T11:23:04.254Z,50.67
2018-12-01T11:25:33.288Z,70.57
2018-12-01T11:28:01.569Z,61.17
2018-12-01T11:30:30.023Z,82.13
2018-12-01T11:32:59.534Z,56.67
2018-12-01T11:35:28.216Z,45.43
2018-12-01T11:37:56.612Z,61.53
2018-12-01T11:40:24.895Z,85.67
2018-12-01T11:42:53.491Z,57.77
2018-12-01T11:45:22.259Z,58.47
2018-12-01T11:47:50.517Z,65.97
2018-12-01T11:50:19.844Z,47.67
2018-12-01T11:52:48.988Z,102.03
2018-12-01T11:55:26.403Z,107.60
2018-12-01T11:57:54.951Z,74.17
2018-12-01T12:00:26.759Z,50.17
2018-12-01T12:02:55.400Z,87.40
2018-12-01T12:05:25.564Z,53.43
2018-12-01T12:08:05.104Z,49.73
2018-12-01T12:10:33.407Z,87.37
2018-12-01T12:13:02.102Z,98.50
2018-12-01T12:15:30.391Z,81.50
2018-12-01T12:18:02.116Z,68.73
2018-12-01T12:20:31.420Z,87.67
2018-12-01T12:22:59.762Z,53.43
2018-12-01T12:25:28.055Z,47.13
2018-12-01T12:27:56.366Z,58.60
2018-12-01T12:30:26.005Z,94.80
2018-12-01T12:32:53.357Z,72.77
2018-12-01T12:35:22.296Z,106.50
2018-12-01T12:37:50.585Z,77.33
2018-12-01T12:40:28.332Z,51.73
2018-12-01T12:42:59.041Z,124.00
2018-12-01T12:45:27.363Z,59.83
2018-12-01T12:47:55.659Z,72.70
2018-12-01T12:50:24.466Z,60.53
2018-12-01T12:52:55.573Z,63.63
2018-12-01T12:55:26.618Z,55.30
2018-12-01T12:57:54.968Z,84.50
2018-12-01T13:00:27.171Z,63.17
2018-12-01T13:03:03.515Z,114.57
2018-12-01T13:05:37.586Z,77.23
2018-12-01T13:08:06.988Z,58.10
2018-12-01T13:10:35.732Z,63.13
2018-12-01T13:13:05.229Z,76.00
2018-12-01T13:15:33.580Z,82.67
2018-12-01T13:18:02.510Z,55.07
2018-12-01T13:20:30.839Z,94.27
2018-12-01T13:23:00.275Z,99.83
2018-12-01T13:25:28.596Z,91.40
2018-12-01T13:28:01.341Z,101.30
2018-12-01T13:30:31.855Z,144.17
2018-12-01T13:33:00.749Z,96.30
2018-12-01T13:35:29.285Z,69.50
2018-12-01T13:37:57.590Z,58.33
2018-12-01T13:40:26.513Z,61.50
2018-12-01T13:45:32.888Z,97.27
2018-12-01T13:48:01.227Z,94.97
2018-12-01T13:50:29.940Z,98.40
2018-12-01T13:52:59.512Z,73.43
2018-12-01T13:55:27.859Z,68.77
2018-12-01T13:57:56.410Z,70.50
2018-12-01T14:00:26.667Z,58.13
2018-12-01T14:05:28.758Z,96.53
2018-12-01T14:07:57.100Z,94.80
2018-12-01T14:10:26.628Z,65.70
2018-12-01T14:12:56.521Z,88.90
2018-12-01T14:15:24.989Z,99.40
2018-12-01T14:17:53.275Z,84.70
2018-12-01T14:20:22.144Z,62.53
2018-12-01T14:22:50.900Z,62.33
2018-12-01T14:25:22.036Z,104.30
2018-12-01T14:27:53.106Z,71.03
2018-12-01T14:30:21.888Z,64.17
2018-12-01T14:32:50.579Z,68.07
2018-12-01T14:35:22.817Z,66.00
2018-12-01T14:38:23.548Z,69.00
2018-12-01T14:40:52.091Z,74.77
2018-12-01T14:43:20.411Z,120.00
2018-12-01T14:45:49.468Z,125.47
2018-12-01T14:48:17.910Z,81.17
2018-12-01T14:50:48.712Z,80.57
2018-12-01T14:53:16.786Z,113.40
2018-12-01T14:55:45.053Z,87.70
2018-12-01T14:58:13.739Z,104.17
2018-12-01T15:00:42.038Z,126.73
2018-12-01T15:03:10.352Z,77.13
2018-12-01T15:05:40.215Z,96.23
2018-12-01T15:08:08.722Z,67.37
2018-12-01T15:10:37.582Z,111.90
2018-12-01T15:13:06.573Z,83.10
2018-12-01T15:15:35.557Z,146.93
2018-12-01T15:18:04.510Z,112.07
2018-12-01T15:20:33.542Z,80.73
2018-12-01T15:23:01.916Z,106.93
2018-12-01T15:25:30.941Z,73.90
2018-12-01T15:27:59.246Z,81.27
2018-12-01T15:30:28.445Z,106.20
2018-12-01T15:33:13.062Z,117.27
2018-12-01T15:35:42.872Z,65.53
2018-12-01T15:38:11.192Z,65.23
2018-12-01T15:40:41.146Z,95.63
2018-12-01T15:43:10.074Z,85.33
2018-12-01T15:45:38.907Z,71.40
2018-12-01T15:48:07.577Z,87.27
2018-12-01T15:50:36.882Z,130.63
2018-12-01T15:53:07.682Z,57.93
2018-12-01T15:55:36.080Z,72.30
2018-12-01T15:58:04.693Z,67.53
2018-12-01T16:00:32.955Z,65.80
2018-12-01T16:03:01.542Z,70.57
2018-12-01T16:05:30.429Z,75.73
2018-12-01T16:07:58.863Z,75.93
2018-12-01T16:10:27.223Z,85.77
2018-12-01T16:12:59.633Z,92.30
2018-12-01T16:15:31.221Z,62.33
2018-12-01T16:17:59.512Z,98.23
2018-12-01T16:20:28.353Z,72.07
2018-12-01T16:22:56.712Z,116.47
2018-12-01T16:25:25.883Z,76.40
2018-12-01T16:27:54.191Z,86.30
2018-12-01T16:30:23.964Z,91.60
2018-12-01T16:32:54.126Z,88.93
2018-12-01T16:35:22.847Z,90.00
2018-12-01T16:37:51.124Z,100.53
2018-12-01T16:40:23.962Z,65.67
2018-12-01T16:42:52.702Z,65.17
2018-12-01T16:45:21.016Z,74.47
2018-12-01T16:47:49.336Z,58.90
2018-12-01T16:50:17.935Z,95.07
2018-12-01T16:52:46.612Z,89.73
2018-12-01T16:55:16.073Z,102.40
2018-12-01T16:57:44.680Z,119.23
2018-12-01T17:00:14.547Z,120.60
2018-12-01T17:02:43.281Z,65.10
2018-12-01T17:05:13.016Z,126.03
2018-12-01T17:07:41.367Z,78.77
2018-12-01T17:10:12.818Z,133.60
2018-12-01T17:12:42.294Z,94.50
2018-12-01T17:15:16.739Z,80.93
2018-12-01T17:17:45.125Z,183.70
2018-12-01T17:20:14.706Z,73.57
2018-12-01T17:22:44.448Z,103.60
2018-12-01T17:25:15.063Z,99.83
2018-12-01T17:27:43.768Z,88.60
2018-12-01T17:30:15.270Z,98.33
2018-12-01T17:32:44.007Z,71.97
2018-12-01T17:35:15.827Z,87.37
2018-12-01T17:37:44.953Z,62.00
2018-12-01T17:40:14.964Z,117.00
2018-12-01T17:42:45.336Z,99.13
2018-12-01T17:45:13.712Z,72.17
2018-12-01T17:47:42.053Z,133.50
2018-12-01T17:50:12.977Z,84.57
2018-12-01T17:52:42.838Z,112.10
2018-12-01T17:55:12.537Z,124.73
2018-12-01T17:57:40.827Z,113.93
2018-12-01T18:00:11.617Z,68.10
2018-12-01T18:02:39.930Z,61.93
2018-12-01T18:05:12.352Z,67.13
2018-12-01T18:07:40.635Z,93.10
2018-12-01T18:10:10.821Z,103.60
2018-12-01T18:12:39.573Z,61.30
2018-12-01T18:15:13.721Z,113.20
2018-12-01T18:17:42.040Z,74.43
2018-12-01T18:20:16.965Z,73.37
2018-12-01T18:22:48.738Z,128.00
2018-12-01T18:25:17.048Z,96.83
2018-12-01T18:27:46.543Z,95.20
2018-12-01T18:30:21.500Z,93.10
2018-12-01T18:32:50.284Z,61.83
2018-12-01T18:35:19.050Z,80.20
2018-12-01T18:37:47.324Z,102.80
2018-12-01T18:40:20.791Z,84.37
2018-12-01T18:42:49.379Z,72.00
2018-12-01T18:45:18.643Z,60.23
2018-12-01T18:47:47.232Z,72.70
2018-12-01T18:50:16.828Z,59.53
2018-12-01T18:52:55.545Z,90.73
2018-12-01T18:55:24.295Z,82.67
2018-12-01T18:57:53.190Z,62.80
2018-12-01T19:00:26.336Z,70.07
2018-12-01T19:02:54.626Z,67.40
2018-12-01T19:05:23.171Z,58.63
2018-12-01T19:07:51.832Z,98.93
2018-12-01T19:10:20.184Z,54.63
2018-12-01T19:12:49.073Z,103.73
2018-12-01T19:15:18.084Z,67.77
2018-12-01T19:17:47.727Z,57.97
2018-12-01T19:20:17.340Z,84.13
2018-12-01T19:22:46.698Z,72.50
2018-12-01T19:25:17.908Z,85.57
2018-12-01T19:27:46.872Z,118.77
2018-12-01T19:30:17.961Z,124.00
2018-12-01T19:32:48.785Z,118.93
2018-12-01T19:35:17.989Z,78.80
2018-12-01T19:37:48.652Z,99.90
2018-12-01T19:40:19.092Z,126.37
2018-12-01T19:42:47.421Z,93.90
2018-12-01T19:45:15.737Z,61.97
2018-12-01T19:47:44.137Z,62.70
2018-12-01T19:50:17.212Z,120.50
2018-12-01T19:52:45.596Z,63.77
2018-12-01T19:55:14.805Z,81.23
2018-12-01T19:57:44.106Z,74.30
2018-12-01T20:00:14.247Z,68.20
2018-12-01T20:02:42.592Z,61.43
2018-12-01T20:05:12.561Z,98.77
2018-12-01T20:07:40.909Z,100.53
2018-12-01T20:10:17.792Z,78.37
2018-12-01T20:12:48.020Z,114.60
2018-12-01T20:15:27.752Z,132.60
2018-12-01T20:17:56.173Z,57.67
2018-12-01T20:20:24.894Z,83.90
2018-12-01T20:22:53.212Z,83.27
2018-12-01T20:25:21.900Z,101.90
2018-12-01T20:27:50.795Z,66.60
2018-12-01T20:30:20.328Z,58.07
2018-12-01T20:32:49.958Z,88.10
2018-12-01T20:35:21.037Z,71.87
2018-12-01T20:38:24.627Z,51.40
2018-12-01T20:40:57.553Z,127.83
2018-12-01T20:43:22.276Z,45.07
2018-12-01T20:45:51.198Z,72.43
2018-12-01T20:48:19.817Z,75.73
2018-12-01T20:50:48.785Z,56.13
2018-12-01T20:53:17.624Z,73.00
2018-12-01T20:55:48.598Z,64.33
2018-12-01T20:58:17.059Z,76.13
2018-12-01T21:00:45.893Z,53.40
2018-12-01T21:03:14.201Z,62.53
2018-12-01T21:05:42.905Z,89.03
2018-12-01T21:08:11.220Z,109.80
2018-12-01T21:10:42.568Z,81.07
2018-12-01T21:13:11.554Z,89.63
2018-12-01T21:15:39.856Z,79.23
2018-12-01T21:18:08.939Z,92.87
2018-12-01T21:20:37.269Z,48.47
2018-12-01T21:23:05.850Z,63.23
2018-12-01T21:25:34.158Z,49.77
2018-12-01T21:28:02.915Z,164.60
2018-12-01T21:30:31.566Z,91.27
2018-12-01T21:33:32.935Z,68.80
2018-12-01T21:36:01.440Z,64.43
2018-12-01T21:38:29.985Z,64.33
2018-12-01T21:40:58.848Z,90.60
2018-12-01T21:43:27.149Z,60.13
2018-12-01T21:45:55.771Z,94.37
2018-12-01T21:48:24.085Z,45.47
2018-12-01T21:50:52.664Z,88.63
2018-12-01T21:53:22.561Z,97.10
2018-12-01T21:55:50.990Z,55.17
2018-12-01T21:58:19.322Z,99.67
2018-12-01T22:00:51.399Z,115.50
2018-12-01T22:03:20.564Z,66.17
2018-12-01T22:05:52.953Z,68.17
2018-12-01T22:08:21.728Z,46.63
2018-12-01T22:10:52.523Z,93.67
2018-12-01T22:13:21.075Z,51.87
2018-12-01T22:15:49.367Z,72.77
2018-12-01T22:18:18.410Z,80.70
2018-12-01T22:20:46.741Z,80.87
2018-12-01T22:23:14.992Z,80.70
2018-12-01T22:25:43.963Z,52.77
2018-12-01T22:28:13.377Z,77.57
2018-12-01T22:30:42.692Z,58.50
2018-12-01T22:33:13.653Z,88.40
2018-12-01T22:35:43.848Z,75.77
2018-12-01T22:38:12.624Z,57.40
2018-12-01T22:40:42.200Z,95.90
2018-12-01T22:43:10.683Z,65.10
2018-12-01T22:45:39.029Z,70.17
2018-12-01T22:48:10.856Z,85.87
2018-12-01T22:50:40.980Z,61.37
2018-12-01T22:53:09.345Z,54.43
2018-12-01T22:55:39.884Z,71.97
2018-12-01T22:58:10.090Z,50.10
2018-12-01T23:00:58.804Z,66.70
2018-12-01T23:03:29.531Z,44.00
2018-12-01T23:05:57.800Z,61.60
2018-12-01T23:08:27.228Z,46.13
2018-12-01T23:10:55.573Z,59.80
2018-12-01T23:13:24.285Z,41.57
2018-12-01T23:15:56.372Z,28.67
2018-12-01T23:18:25.999Z,34.97
2018-12-01T23:20:54.279Z,50.47
2018-12-01T23:23:22.559Z,29.27
2018-12-01T23:25:51.348Z,37.60
2018-12-01T23:28:20.049Z,51.90
2018-12-01T23:30:50.874Z,42.70
2018-12-01T23:33:23.649Z,56.17
2018-12-01T23:35:52.511Z,35.30
2018-12-01T23:38:20.803Z,40.60
2018-12-01T23:40:49.087Z,35.27
2018-12-01T23:43:17.778Z,59.00
2018-12-01T23:45:46.197Z,31.50
2018-12-01T23:48:14.476Z,32.50
2018-12-01T23:50:52.721Z,43.40
2018-12-01T23:53:21.420Z,50.03
2018-12-01T23:55:49.679Z,44.67
2018-12-01T23:58:18.031Z,39.90
